createdAt,value
2023-04-18T00:08:54.408Z,100
2023-04-18T00:24:37.275Z,100
2023-04-18T00:40:20.390Z,100
2023-04-18T00:56:03.198Z,100
2023-04-18T01:11:46.231Z,100
2023-04-18T01:27:29.306Z,100
2023-04-18T01:43:12.105Z,100
2023-04-18T02:14:37.017Z,100
2023-04-18T02:30:19.889Z,100
2023-04-18T02:46:02.288Z,100
2023-04-18T03:01:44.419Z,100
2023-04-18T03:17:27.383Z,100
2023-04-18T03:33:10.135Z,100
2023-04-18T03:48:52.682Z,100
2023-04-18T04:04:35.546Z,100
2023-04-18T04:20:18.386Z,100
2023-04-18T04:36:00.951Z,100
2023-04-18T04:51:44.044Z,100
2023-04-18T05:07:26.822Z,100
2023-04-18T05:23:09.216Z,100
2023-04-18T05:38:52.298Z,100
2023-04-18T05:54:34.893Z,100
2023-04-18T06:10:17.737Z,100
2023-04-18T06:26:00.019Z,100
2023-04-18T06:41:42.810Z,100
2023-04-18T06:57:25.168Z,100
2023-04-18T07:13:07.519Z,100
2023-04-18T07:44:33.197Z,100
2023-04-18T08:00:16.064Z,100
2023-04-18T08:15:58.855Z,100
2023-04-18T08:31:41.672Z,100
2023-04-18T08:47:24.181Z,100
2023-04-18T09:03:06.803Z,100
2023-04-18T09:03:54.120Z,100
2023-04-18T09:19:36.334Z,97.91
2023-04-18T09:35:19.316Z,93.48
2023-04-18T10:06:44.541Z,87.79
2023-04-18T10:22:26.721Z,84.79
2023-04-18T10:38:09.550Z,81.16
2023-04-18T10:53:52.045Z,81.47
2023-04-18T11:09:35.030Z,82.19
2023-04-18T11:25:17.892Z,81.47
2023-04-18T11:40:59.898Z,83.07
2023-04-18T11:56:42.461Z,82.62
2023-04-18T12:12:25.282Z,82.85
2023-04-18T12:43:49.917Z,84.43
2023-04-18T13:15:14.820Z,83.92
2023-04-18T13:46:39.660Z,83.7
2023-04-18T14:02:22.190Z,86.9
2023-04-18T14:18:04.386Z,86.29
2023-04-18T14:33:47.532Z,85.71
2023-04-18T14:49:30.021Z,84.36
2023-04-18T15:05:12.072Z,85.54
2023-04-18T15:20:54.136Z,86.71
2023-04-18T15:52:19.792Z,85.62
2023-04-18T16:23:59.029Z,83.99
2023-04-18T16:55:10.308Z,79.15
2023-04-18T17:10:52.590Z,81.64
2023-04-18T17:26:42.472Z,82.83
2023-04-18T17:42:18.213Z,85.02
2023-04-18T18:29:25.929Z,90.89
2023-04-18T18:45:08.204Z,90.06
2023-04-18T19:00:58.125Z,89.92
2023-04-18T19:16:34.069Z,89.88
2023-04-18T19:32:16.241Z,86.32
2023-04-18T19:47:59.108Z,87.61
2023-04-18T20:03:41.469Z,88.97
2023-04-18T20:19:24.318Z,92.09
2023-04-18T20:35:06.419Z,96.55
2023-04-18T20:50:48.980Z,98.53
2023-04-18T21:06:38.974Z,100
2023-04-18T21:22:14.814Z,100
2023-04-18T21:37:57.301Z,100
2023-04-18T21:53:39.883Z,100
2023-04-18T22:09:22.644Z,100
2023-04-18T22:25:04.995Z,100
2023-04-18T22:40:47.566Z,100
2023-04-18T23:12:13.070Z,100
2023-04-18T23:27:55.291Z,100
2023-04-18T23:43:38.102Z,99.75
